Time;durP1;ratioP1;P1;durP2;ratioP2;P2;SDS_P1;SDS_P2;PMS_P1;PMS_P2;Temp;Humidity;BMP_temperature;BMP_pressure;BME280_temperature;BME280_humidity;BME280_pressure;Samples;Min_cycle;Max_cycle;Signal;HPM_P1;HPM_P2
2021/04/12 00:01:04;;;;;;;7.00;6.10;;;12.90;80.70;;;;;;4940637;28;20190;-82
2021/04/12 00:03:36;;;;;;;6.73;6.13;;;12.80;80.80;;;;;;4939162;28;20237;-81
2021/04/12 00:06:12;;;;;;;7.37;5.63;;;12.80;81.00;;;;;;4932365;28;20214;-82
2021/04/12 00:08:47;;;;;;;8.20;5.87;;;12.70;81.00;;;;;;4922123;29;20201;-82
2021/04/12 00:11:27;;;;;;;7.10;5.90;;;12.70;81.10;;;;;;4925310;29;20194;-82
2021/04/12 00:14:00;;;;;;;7.07;5.83;;;12.70;81.20;;;;;;4913923;29;20562;-82
2021/04/12 00:16:33;;;;;;;6.70;5.97;;;12.60;81.40;;;;;;4936043;28;20212;-83
2021/04/12 00:19:07;;;;;;;9.53;6.07;;;12.60;81.40;;;;;;4922718;29;20446;-83
2021/04/12 00:21:40;;;;;;;7.03;5.93;;;12.60;81.40;;;;;;4927193;29;20206;-82
2021/04/12 00:24:14;;;;;;;6.80;5.97;;;12.60;81.30;;;;;;4942586;28;20226;-82
2021/04/12 00:26:47;;;;;;;7.73;5.73;;;12.70;81.30;;;;;;4933720;29;20265;-83
2021/04/12 00:29:20;;;;;;;6.47;5.20;;;12.60;81.20;;;;;;4922946;29;20631;-82
2021/04/12 00:31:54;;;;;;;6.80;5.60;;;12.70;81.00;;;;;;4921320;29;20206;-82
2021/04/12 00:34:26;;;;;;;9.37;5.20;;;12.70;80.90;;;;;;4918843;29;20228;-83
2021/04/12 00:37:00;;;;;;;7.17;5.40;;;12.70;81.00;;;;;;4918138;29;20269;-82
2021/04/12 00:39:36;;;;;;;6.80;6.03;;;12.70;81.10;;;;;;4923251;29;20266;-81
2021/04/12 00:42:19;;;;;;;7.00;5.57;;;12.70;81.20;;;;;;4922435;28;20587;-81
2021/04/12 00:45:12;;;;;;;8.83;5.30;;;12.60;81.10;;;;;;4916064;29;20245;-84
2021/04/12 00:47:48;;;;;;;5.60;5.00;;;12.60;81.10;;;;;;4920050;29;20301;-82
2021/04/12 00:50:36;;;;;;;6.67;5.63;;;12.60;81.10;;;;;;4923427;29;20206;-82
2021/04/12 00:53:38;;;;;;;6.87;5.30;;;12.60;81.10;;;;;;4914893;29;20967;-83
2021/04/12 00:56:12;;;;;;;7.17;4.90;;;12.60;81.20;;;;;;4926631;29;20205;-82
2021/04/12 00:58:54;;;;;;;6.87;5.60;;;12.50;81.00;;;;;;4921815;29;20210;-82
2021/04/12 01:01:44;;;;;;;5.93;5.33;;;12.60;80.90;;;;;;4918350;29;20210;-84
2021/04/12 01:04:36;;;;;;;6.10;5.50;;;12.60;81.00;;;;;;4917020;28;20241;-81
2021/04/12 01:07:30;;;;;;;6.53;5.47;;;12.60;81.00;;;;;;4920990;29;20233;-83
2021/04/12 01:10:46;;;;;;;6.93;5.03;;;12.60;80.90;;;;;;4921924;28;20226;-81
2021/04/12 01:13:52;;;;;;;7.43;5.43;;;12.50;80.70;;;;;;4864218;29;20240;-81
2021/04/12 01:16:37;;;;;;;5.13;4.63;;;12.60;80.60;;;;;;4914509;29;20216;-83
2021/04/12 01:19:39;;;;;;;6.67;5.17;;;12.60;80.50;;;;;;4923383;29;20695;-81
2021/04/12 01:22:49;;;;;;;6.00;5.40;;;12.60;80.40;;;;;;4896002;29;20218;-84
2021/04/12 01:26:00;;;;;;;5.47;4.60;;;12.60;80.50;;;;;;4884912;29;20234;-82
2021/04/12 01:29:13;;;;;;;5.57;4.80;;;12.60;80.40;;;;;;4930419;28;20206;-84
2021/04/12 01:31:59;;;;;;;5.73;5.03;;;12.60;80.30;;;;;;4900261;28;20212;-80
2021/04/12 01:35:00;;;;;;;5.73;4.67;;;12.60;80.20;;;;;;4942881;28;20202;-84
2021/04/12 01:37:39;;;;;;;7.20;4.80;;;12.60;80.30;;;;;;4934497;28;20218;-81
2021/04/12 01:40:34;;;;;;;5.83;4.70;;;12.60;80.10;;;;;;4950511;28;20301;-81
2021/04/12 01:43:11;;;;;;;5.27;4.10;;;12.60;80.10;;;;;;4943895;28;20313;-84
2021/04/12 01:45:48;;;;;;;5.57;4.93;;;12.60;80.00;;;;;;4927714;28;20228;-84
2021/04/12 01:48:45;;;;;;;7.07;5.00;;;12.50;80.10;;;;;;4918298;28;20208;-85
2021/04/12 01:51:36;;;;;;;5.73;4.80;;;12.50;80.00;;;;;;4913271;29;20214;-82
2021/04/12 01:54:41;;;;;;;6.17;5.53;;;12.50;80.00;;;;;;4947145;28;20213;-82
2021/04/12 01:57:28;;;;;;;4.90;4.40;;;12.40;79.90;;;;;;4938924;28;20206;-82
2021/04/12 02:00:23;;;;;;;5.47;4.67;;;12.40;79.90;;;;;;4935242;29;20210;-83
2021/04/12 02:02:59;;;;;;;7.23;4.60;;;12.40;79.80;;;;;;4939139;29;20217;-81
2021/04/12 02:05:36;;;;;;;7.67;4.53;;;12.40;79.70;;;;;;4945357;29;20248;-83
2021/04/12 02:08:19;;;;;;;6.17;5.07;;;12.40;79.70;;;;;;4941894;29;20444;-82
2021/04/12 02:11:01;;;;;;;6.17;5.40;;;12.40;79.60;;;;;;4939946;28;20202;-84
2021/04/12 02:13:46;;;;;;;7.57;4.70;;;12.30;79.60;;;;;;4922658;29;20241;-83
2021/04/12 02:16:26;;;;;;;5.80;4.67;;;12.20;79.60;;;;;;4923277;29;20393;-83
2021/04/12 02:19:27;;;;;;;6.73;4.97;;;12.30;79.80;;;;;;4923586;29;20217;-83
2021/04/12 02:22:19;;;;;;;6.07;4.50;;;12.10;79.70;;;;;;4933281;28;20225;-82
2021/04/12 02:24:58;;;;;;;7.17;4.80;;;12.10;79.70;;;;;;4927837;29;20307;-83
2021/04/12 02:27:34;;;;;;;9.13;5.50;;;12.00;79.80;;;;;;4928341;29;20265;-82
2021/04/12 02:30:09;;;;;;;6.67;5.50;;;11.90;80.00;;;;;;4937396;29;20437;-83
2021/04/12 02:33:12;;;;;;;9.20;6.33;;;11.80;80.20;;;;;;4946366;28;20185;-82
2021/04/12 02:35:50;;;;;;;8.03;5.93;;;11.80;80.10;;;;;;4922453;29;20233;-83
2021/04/12 02:38:29;;;;;;;7.77;5.60;;;11.70;80.30;;;;;;4918007;29;20217;-82
2021/04/12 02:41:12;;;;;;;6.63;4.97;;;11.70;80.40;;;;;;4918562;29;20208;-81
2021/04/12 02:43:53;;;;;;;7.50;5.07;;;11.60;80.50;;;;;;4917256;29;20215;-83
2021/04/12 02:46:42;;;;;;;6.63;5.23;;;11.60;80.60;;;;;;4917359;29;20283;-81
2021/04/12 02:49:19;;;;;;;7.37;5.13;;;11.60;80.80;;;;;;4921662;29;20228;-82
2021/04/12 02:52:00;;;;;;;7.50;5.33;;;11.40;80.80;;;;;;4938192;28;20197;-83
2021/04/12 02:54:47;;;;;;;5.87;4.87;;;11.50;80.90;;;;;;4946671;28;20685;-82
2021/04/12 02:58:03;;;;;;;6.27;5.07;;;11.40;81.00;;;;;;4943809;28;20222;-82
2021/04/12 03:00:48;;;;;;;6.70;5.30;;;11.30;81.30;;;;;;4914062;29;20191;-83
2021/04/12 03:03:38;;;;;;;8.30;5.73;;;11.20;81.50;;;;;;4933746;29;20278;-81
2021/04/12 03:06:40;;;;;;;8.50;5.47;;;11.20;81.60;;;;;;4935829;29;20218;-80
2021/04/12 03:09:38;;;;;;;7.97;4.67;;;11.10;81.70;;;;;;4943717;28;20340;-80
2021/04/12 03:12:44;;;;;;;10.87;5.50;;;11.10;81.80;;;;;;4938826;28;20241;-81
2021/04/12 03:15:44;;;;;;;6.30;5.00;;;11.10;81.90;;;;;;4921413;29;20569;-81
2021/04/12 03:18:30;;;;;;;6.03;5.00;;;11.10;82.10;;;;;;4927009;29;20496;-83
2021/04/12 03:21:31;;;;;;;6.03;5.37;;;11.00;82.20;;;;;;4929493;28;20204;-81
2021/04/12 03:24:11;;;;;;;6.13;5.33;;;11.00;82.30;;;;;;4893899;28;20214;-82
2021/04/12 03:27:28;;;;;;;7.60;5.40;;;10.90;82.40;;;;;;4921327;28;20208;-81
2021/04/12 03:30:14;;;;;;;8.27;5.40;;;10.80;82.60;;;;;;4922995;29;20214;-82
2021/04/12 03:33:06;;;;;;;6.73;5.63;;;10.80;82.90;;;;;;4927005;29;20563;-81
2021/04/12 03:35:55;;;;;;;7.93;5.50;;;10.70;83.00;;;;;;4928978;28;20210;-81
2021/04/12 03:38:35;;;;;;;6.37;5.77;;;10.80;83.00;;;;;;4931559;28;20202;-82
2021/04/12 03:41:19;;;;;;;7.47;5.90;;;10.80;83.00;;;;;;4926839;29;20516;-81
2021/04/12 03:44:11;;;;;;;8.60;5.70;;;11.00;83.00;;;;;;4932425;28;20204;-83
2021/04/12 03:47:08;;;;;;;6.13;5.20;;;10.90;82.90;;;;;;4924933;29;20294;-82
2021/04/12 03:49:59;;;;;;;9.07;6.33;;;10.90;82.90;;;;;;4897212;29;20222;-82
2021/04/12 03:53:06;;;;;;;8.47;5.43;;;10.90;83.20;;;;;;4923838;28;20239;-81
2021/04/12 03:55:59;;;;;;;7.20;5.80;;;10.80;83.20;;;;;;4914995;29;20229;-82
2021/04/12 03:58:56;;;;;;;6.53;5.80;;;10.80;83.30;;;;;;4923764;28;20213;-82
2021/04/12 04:01:56;;;;;;;10.63;6.40;;;10.80;83.40;;;;;;4922827;29;20285;-81
2021/04/12 04:04:46;;;;;;;8.43;6.07;;;10.80;83.40;;;;;;4917888;29;20680;-82
2021/04/12 04:07:58;;;;;;;7.37;5.60;;;10.90;83.40;;;;;;4920158;29;20693;-82
2021/04/12 04:10:59;;;;;;;7.17;5.53;;;10.90;83.30;;;;;;4924117;28;20208;-84
2021/04/12 04:13:55;;;;;;;9.97;5.80;;;10.90;83.40;;;;;;4902960;29;20350;-83
2021/04/12 04:16:36;;;;;;;6.60;5.80;;;11.00;83.30;;;;;;4929579;28;20213;-82
2021/04/12 04:19:12;;;;;;;7.27;5.97;;;11.00;83.40;;;;;;4939311;28;20198;-82
2021/04/12 04:22:02;;;;;;;7.87;6.13;;;11.00;83.30;;;;;;4948867;28;20203;-81
2021/04/12 04:25:02;;;;;;;8.80;5.97;;;11.30;83.50;;;;;;4923756;29;20555;-81
2021/04/12 04:27:58;;;;;;;6.63;5.30;;;11.20;83.20;;;;;;4916639;29;20555;-82
2021/04/12 04:30:55;;;;;;;7.07;6.03;;;11.20;83.20;;;;;;4914269;29;20738;-83
2021/04/12 04:33:36;;;;;;;7.40;6.00;;;11.20;83.20;;;;;;4922695;29;20210;-82
2021/04/12 04:36:31;;;;;;;8.07;6.00;;;11.30;83.20;;;;;;4919003;29;20213;-81
2021/04/12 04:39:15;;;;;;;9.67;6.57;;;11.30;83.20;;;;;;4934878;29;20202;-82
2021/04/12 04:42:20;;;;;;;9.73;5.93;;;11.30;83.10;;;;;;4928876;28;20207;-82
2021/04/12 04:45:18;;;;;;;6.53;5.87;;;11.30;83.10;;;;;;4946045;28;20217;-83
2021/04/12 04:48:21;;;;;;;8.43;6.20;;;11.40;83.10;;;;;;4913936;28;20213;-83
2021/04/12 04:51:16;;;;;;;7.30;5.70;;;11.40;83.10;;;;;;4945819;28;20363;-82
2021/04/12 04:54:06;;;;;;;7.47;6.33;;;11.50;83.00;;;;;;4943564;28;20198;-83
2021/04/12 04:56:40;;;;;;;6.73;6.07;;;11.50;83.10;;;;;;4946236;28;20321;-82
2021/04/12 04:59:26;;;;;;;9.10;6.23;;;11.50;83.00;;;;;;4944863;28;20449;-82
2021/04/12 05:02:03;;;;;;;7.37;6.67;;;11.50;83.20;;;;;;4921600;28;20209;-82
2021/04/12 05:05:04;;;;;;;9.53;6.63;;;11.50;83.10;;;;;;4917460;29;20213;-84
2021/04/12 05:08:07;;;;;;;7.07;6.00;;;11.50;83.10;;;;;;4914084;29;20216;-83
2021/04/12 05:11:10;;;;;;;10.53;6.30;;;11.60;83.10;;;;;;4947180;28;20249;-82
2021/04/12 05:14:14;;;;;;;8.60;6.10;;;11.60;83.00;;;;;;4936082;28;20533;-81
2021/04/12 05:17:31;;;;;;;8.43;6.50;;;11.70;83.00;;;;;;4943900;28;20285;-81
2021/04/12 05:20:11;;;;;;;6.80;6.10;;;11.70;83.00;;;;;;4886396;29;20237;-81
2021/04/12 05:23:21;;;;;;;8.87;6.10;;;11.70;83.00;;;;;;4931130;29;20289;-82
2021/04/12 05:26:04;;;;;;;8.67;5.93;;;11.70;83.10;;;;;;4851946;29;20356;-82
2021/04/12 05:29:00;;;;;;;7.87;5.63;;;11.70;82.90;;;;;;4914702;29;20545;-82
2021/04/12 05:32:03;;;;;;;8.03;6.00;;;11.70;83.00;;;;;;4917046;29;20229;-82
2021/04/12 05:34:57;;;;;;;8.33;5.80;;;11.70;82.90;;;;;;4921022;29;20213;-82
2021/04/12 05:37:54;;;;;;;8.00;5.83;;;11.80;82.90;;;;;;4895463;29;20256;-83
2021/04/12 05:40:54;;;;;;;6.33;5.17;;;11.80;82.90;;;;;;4893132;29;20389;-82
2021/04/12 05:44:01;;;;;;;10.00;6.57;;;11.80;83.00;;;;;;4929852;28;20202;-83
2021/04/12 05:47:01;;;;;;;8.17;5.83;;;11.80;83.10;;;;;;4858813;29;20228;-83
2021/04/12 05:49:59;;;;;;;10.03;6.10;;;11.80;83.10;;;;;;4931755;28;20413;-82
2021/04/12 05:52:45;;;;;;;7.87;6.27;;;11.80;82.90;;;;;;4930689;28;20612;-84
2021/04/12 05:55:37;;;;;;;7.23;6.53;;;11.80;82.90;;;;;;4928235;29;20228;-81
2021/04/12 05:58:31;;;;;;;7.53;6.17;;;11.90;82.80;;;;;;4918872;29;20206;-82
2021/04/12 06:01:29;;;;;;;7.80;6.30;;;12.00;82.90;;;;;;4920370;29;20220;-83
2021/04/12 06:04:13;;;;;;;8.97;5.93;;;12.00;82.90;;;;;;4910385;29;20220;-82
2021/04/12 06:07:21;;;;;;;8.50;6.27;;;12.00;82.70;;;;;;4934227;29;20417;-82
2021/04/12 06:10:34;;;;;;;7.87;6.27;;;12.10;82.80;;;;;;4938274;29;20295;-82
2021/04/12 06:13:34;;;;;;;9.37;6.37;;;12.30;82.60;;;;;;4924590;29;20206;-85
2021/04/12 06:16:51;;;;;;;8.57;6.20;;;12.60;82.60;;;;;;4919275;29;20210;-82
2021/04/12 06:19:43;;;;;;;7.27;5.93;;;13.00;81.70;;;;;;4841077;29;20245;-83
2021/04/12 06:22:39;;;;;;;8.27;5.67;;;13.30;81.50;;;;;;4919486;29;20321;-84
2021/04/12 06:25:40;;;;;;;7.83;5.37;;;13.50;81.20;;;;;;4918906;29;20301;-83
2021/04/12 06:28:44;;;;;;;7.40;5.70;;;13.70;80.90;;;;;;4881175;29;20288;-81
2021/04/12 06:31:49;;;;;;;7.27;6.00;;;13.90;80.60;;;;;;4898240;29;20312;-83
2021/04/12 06:34:48;;;;;;;7.33;5.70;;;14.10;80.50;;;;;;4925266;28;20205;-82
2021/04/12 06:37:28;;;;;;;6.47;5.80;;;14.20;79.90;;;;;;4920898;29;20289;-83
2021/04/12 06:40:26;;;;;;;12.20;6.10;;;14.20;79.70;;;;;;4915991;29;20222;-83
2021/04/12 06:43:20;;;;;;;8.67;6.00;;;14.20;79.80;;;;;;4927086;28;21057;-83
2021/04/12 06:46:31;;;;;;;8.03;5.30;;;14.40;79.60;;;;;;4933146;28;20264;-82
2021/04/12 06:49:48;;;;;;;7.67;5.93;;;14.60;79.30;;;;;;4932397;28;20206;-84
2021/04/12 06:53:01;;;;;;;8.40;5.73;;;14.80;78.90;;;;;;4923092;28;20209;-83
2021/04/12 06:55:58;;;;;;;10.00;6.37;;;15.00;78.50;;;;;;4929614;28;20247;-82
2021/04/12 06:58:57;;;;;;;7.13;5.93;;;15.10;78.20;;;;;;4925319;29;20222;-82
2021/04/12 07:01:58;;;;;;;6.33;5.50;;;15.30;78.20;;;;;;4935415;28;20433;-83
2021/04/12 07:05:09;;;;;;;7.43;5.50;;;15.30;77.50;;;;;;4940964;28;20198;-83
2021/04/12 07:08:31;;;;;;;8.70;5.60;;;15.30;77.20;;;;;;4934836;29;20194;-81
2021/04/12 07:11:49;;;;;;;8.93;5.90;;;15.50;77.40;;;;;;4937489;28;20453;-84
2021/04/12 07:15:00;;;;;;;9.93;6.50;;;15.70;76.80;;;;;;4936353;28;20329;-84
2021/04/12 07:18:07;;;;;;;7.33;5.83;;;15.70;76.30;;;;;;4927531;28;20214;-83
2021/04/12 07:20:57;;;;;;;9.27;6.33;;;15.90;76.20;;;;;;4892795;29;20214;-82
2021/04/12 07:24:02;;;;;;;7.03;6.30;;;16.00;76.00;;;;;;4917137;29;20210;-85
2021/04/12 07:27:13;;;;;;;9.23;6.47;;;15.90;75.20;;;;;;4914864;29;20235;-84
2021/04/12 07:30:16;;;;;;;8.17;6.00;;;16.00;75.30;;;;;;4915534;29;20220;-83
2021/04/12 07:33:13;;;;;;;7.90;6.07;;;16.10;75.30;;;;;;4917745;28;20638;-85
2021/04/12 07:36:26;;;;;;;7.23;6.03;;;16.10;75.00;;;;;;4920815;28;20203;-87
2021/04/12 07:39:29;;;;;;;7.43;5.97;;;16.10;75.00;;;;;;4915353;28;20220;-83
2021/04/12 07:42:44;;;;;;;7.67;5.70;;;16.30;75.00;;;;;;4921761;28;20233;-83
2021/04/12 07:45:57;;;;;;;7.80;6.00;;;16.40;74.70;;;;;;4921935;28;20629;-85
2021/04/12 07:49:24;;;;;;;6.27;5.57;;;16.50;74.30;;;;;;4911451;29;20261;-83
2021/04/12 07:52:43;;;;;;;6.80;5.27;;;16.60;73.80;;;;;;4914415;28;20217;-84
2021/04/12 07:56:05;;;;;;;7.17;5.53;;;16.60;73.90;;;;;;4917309;28;20615;-84
2021/04/12 07:59:08;;;;;;;7.57;6.00;;;16.70;74.00;;;;;;4848226;29;20497;-85
2021/04/12 08:02:19;;;;;;;7.03;5.37;;;16.70;73.10;;;;;;4849951;29;20723;-83
2021/04/12 08:05:35;;;;;;;6.20;5.40;;;16.80;72.80;;;;;;4849427;29;20224;-83
2021/04/12 08:08:35;;;;;;;7.50;5.20;;;16.70;72.80;;;;;;4852638;29;20212;-84
2021/04/12 08:11:50;;;;;;;8.63;5.27;;;16.70;72.10;;;;;;4856863;29;20209;-83
2021/04/12 08:15:00;;;;;;;5.60;4.97;;;16.70;71.80;;;;;;4849942;29;20220;-83
2021/04/12 08:18:29;;;;;;;6.10;5.27;;;16.60;72.00;;;;;;4851706;29;20220;-83
2021/04/12 08:21:34;;;;;;;7.73;5.50;;;16.40;71.80;;;;;;4830738;29;20683;-83
2021/04/12 08:24:39;;;;;;;5.73;4.90;;;16.30;71.60;;;;;;4856470;29;20220;-85
2021/04/12 08:27:50;;;;;;;5.53;4.80;;;16.30;71.40;;;;;;4848543;29;20264;-83
2021/04/12 08:30:52;;;;;;;5.47;4.77;;;16.40;71.20;;;;;;4898250;29;20491;-83
2021/04/12 08:34:20;;;;;;;9.37;5.33;;;16.40;70.90;;;;;;4906670;29;20280;-82
2021/04/12 08:37:29;;;;;;;9.77;5.80;;;16.50;71.80;;;;;;4920388;28;20273;-85
2021/04/12 08:40:24;;;;;;;7.53;5.57;;;16.60;71.80;;;;;;4938184;23;20214;-84
2021/04/12 08:43:14;;;;;;;5.27;4.77;;;16.70;71.20;;;;;;4920485;28;20245;-84
2021/04/12 08:46:25;;;;;;;6.20;5.20;;;16.80;70.80;;;;;;4929863;28;20952;-84
2021/04/12 08:49:10;;;;;;;5.50;5.00;;;16.90;70.60;;;;;;4931637;28;20214;-82
2021/04/12 08:52:12;;;;;;;6.00;4.77;;;16.90;70.20;;;;;;4929285;28;20908;-83
2021/04/12 08:55:25;;;;;;;5.30;4.40;;;17.10;69.60;;;;;;4923980;28;20324;-84
2021/04/12 08:58:34;;;;;;;7.40;4.63;;;17.00;69.20;;;;;;4905821;29;20529;-85
2021/04/12 09:01:39;;;;;;;7.20;4.80;;;17.10;69.60;;;;;;4911075;29;20603;-82
2021/04/12 09:04:53;;;;;;;6.30;4.63;;;17.10;69.20;;;;;;4916865;28;20237;-83
2021/04/12 09:07:49;;;;;;;4.67;4.27;;;17.20;68.90;;;;;;4908122;29;21030;-85
2021/04/12 09:10:40;;;;;;;6.63;4.10;;;17.20;68.80;;;;;;4917392;29;20212;-82
2021/04/12 09:13:40;;;;;;;8.70;4.77;;;17.40;68.70;;;;;;4888761;28;20198;-83
2021/04/12 09:16:25;;;;;;;4.50;4.10;;;17.50;67.80;;;;;;4926686;28;20209;-82
2021/04/12 09:19:40;;;;;;;6.13;4.57;;;17.60;67.60;;;;;;4929404;28;20515;-84
2021/04/12 09:22:51;;;;;;;5.17;4.70;;;17.50;67.00;;;;;;4933979;28;20194;-83
2021/04/12 09:26:02;;;;;;;7.47;4.30;;;17.60;67.70;;;;;;4911602;28;20281;-83
2021/04/12 09:29:00;;;;;;;5.73;4.50;;;17.80;67.70;;;;;;4914502;28;20362;-83
2021/04/12 09:31:46;;;;;;;5.97;4.37;;;17.90;66.40;;;;;;4911616;29;20392;-83
2021/04/12 09:34:44;;;;;;;5.57;4.40;;;18.00;67.10;;;;;;4930195;28;20210;-83
2021/04/12 09:37:44;;;;;;;5.30;4.73;;;18.00;66.80;;;;;;4932109;28;20245;-84
2021/04/12 09:41:00;;;;;;;7.53;4.30;;;18.00;66.00;;;;;;4927238;28;20412;-84
2021/04/12 09:44:01;;;;;;;6.10;4.27;;;18.00;65.90;;;;;;4845735;29;20619;-83
2021/04/12 09:47:09;;;;;;;7.60;4.40;;;18.10;65.90;;;;;;4854439;29;20251;-83
2021/04/12 09:50:35;;;;;;;8.50;4.50;;;18.10;65.70;;;;;;4851450;29;21549;-84
2021/04/12 09:53:42;;;;;;;6.73;4.20;;;18.20;65.60;;;;;;4849210;29;20468;-82
2021/04/12 09:56:47;;;;;;;4.53;4.10;;;18.30;65.50;;;;;;4846874;29;20739;-85
2021/04/12 09:59:39;;;;;;;5.00;4.00;;;18.30;65.20;;;;;;4820549;29;20388;-86
2021/04/12 10:02:50;;;;;;;7.97;4.37;;;18.40;64.90;;;;;;4830224;29;20208;-82
2021/04/12 10:06:08;;;;;;;5.53;4.70;;;18.50;64.00;;;;;;4854060;29;20215;-84
2021/04/12 10:08:41;;;;;;;6.87;4.13;;;18.40;64.00;;;;;;4880666;29;20251;-85
2021/04/12 10:11:15;;;;;;;4.47;4.07;;;18.40;63.80;;;;;;4873857;29;20212;-84
2021/04/12 10:13:59;;;;;;;6.27;3.77;;;18.30;64.70;;;;;;4876742;29;20234;-82
2021/04/12 10:16:31;;;;;;;6.63;3.53;;;18.20;63.90;;;;;;4873910;29;20216;-83
2021/04/12 10:19:09;;;;;;;5.00;3.60;;;18.30;64.30;;;;;;4875813;29;20204;-82
2021/04/12 10:21:44;;;;;;;6.33;3.63;;;18.30;63.90;;;;;;4930387;28;20197;-86
2021/04/12 10:24:25;;;;;;;5.10;3.57;;;18.40;63.70;;;;;;4934069;28;21441;-83
2021/04/12 10:26:58;;;;;;;6.37;3.83;;;18.40;63.10;;;;;;4928453;28;20814;-83
2021/04/12 10:29:38;;;;;;;4.40;4.00;;;18.40;63.50;;;;;;4929396;28;20301;-85
2021/04/12 10:32:23;;;;;;;7.63;3.40;;;18.40;63.70;;;;;;4918264;29;20274;-83
2021/04/12 10:35:00;;;;;;;4.10;3.47;;;18.30;62.70;;;;;;4918049;29;20207;-85
2021/04/12 10:37:35;;;;;;;5.70;4.10;;;18.30;63.20;;;;;;4909846;29;20288;-82
2021/04/12 10:40:11;;;;;;;4.53;3.87;;;18.40;62.90;;;;;;4913638;28;21892;-86
2021/04/12 10:42:54;;;;;;;4.70;3.70;;;18.40;62.90;;;;;;4910771;28;20212;-84
2021/04/12 10:45:27;;;;;;;4.17;3.70;;;18.50;62.70;;;;;;4912356;29;20216;-84
2021/04/12 10:48:00;;;;;;;6.33;3.77;;;18.50;62.20;;;;;;4911601;29;20841;-85
2021/04/12 10:50:34;;;;;;;8.60;3.90;;;18.50;62.50;;;;;;4917587;29;20206;-83
2021/04/12 10:53:34;;;;;;;4.10;3.70;;;18.50;62.20;;;;;;4926796;28;20206;-84
2021/04/12 10:56:08;;;;;;;5.77;3.90;;;18.50;62.50;;;;;;4928535;29;20423;-85
2021/04/12 10:58:57;;;;;;;4.77;3.87;;;18.50;62.20;;;;;;4926551;29;20206;-85
2021/04/12 11:01:37;;;;;;;5.57;4.10;;;18.40;62.60;;;;;;4930056;28;20257;-84
2021/04/12 11:04:19;;;;;;;6.73;4.80;;;18.50;62.50;;;;;;4935243;28;20213;-83
2021/04/12 11:07:19;;;;;;;6.47;4.27;;;18.70;62.90;;;;;;4926379;28;20396;-82
2021/04/12 11:09:59;;;;;;;5.07;3.80;;;18.80;62.60;;;;;;4936514;28;20393;-83
2021/04/12 11:12:49;;;;;;;5.57;4.13;;;19.00;62.00;;;;;;4935648;28;20626;-84
2021/04/12 11:15:33;;;;;;;5.43;4.50;;;19.30;62.00;;;;;;4931072;28;21002;-84
2021/04/12 11:18:16;;;;;;;4.10;3.73;;;19.50;62.00;;;;;;4915287;29;20222;-87
2021/04/12 11:21:05;;;;;;;5.83;3.83;;;19.70;61.80;;;;;;4923606;29;20218;-84
2021/04/12 11:23:39;;;;;;;7.23;4.47;;;20.00;61.50;;;;;;4936030;28;20194;-83
2021/04/12 11:26:23;;;;;;;6.60;4.37;;;20.20;61.10;;;;;;4931905;28;20240;-83
2021/04/12 11:28:55;;;;;;;4.45;3.78;;;20.20;61.10;;;;;;4936230;28;20366;-84
2021/04/12 11:31:47;;;;;;;5.82;4.32;;;20.30;61.40;;;;;;4930685;28;20289;-84
2021/04/12 11:34:27;;;;;;;4.85;4.15;;;20.50;61.20;;;;;;4929548;29;20206;-83
2021/04/12 11:37:16;;;;;;;6.80;4.38;;;20.70;60.70;;;;;;4934972;28;20197;-84
2021/04/12 11:39:54;;;;;;;5.28;4.03;;;20.70;59.60;;;;;;4930406;28;20230;-85
2021/04/12 11:42:31;;;;;;;5.88;3.95;;;20.80;59.10;;;;;;4923830;29;20319;-85
2021/04/12 11:45:07;;;;;;;7.18;4.60;;;20.70;59.50;;;;;;4920013;29;20713;-83
2021/04/12 11:47:53;;;;;;;5.47;4.20;;;20.70;59.10;;;;;;4917055;28;20234;-85
2021/04/12 11:50:29;;;;;;;4.80;4.03;;;20.60;59.40;;;;;;4916916;29;20206;-84
2021/04/12 11:53:04;;;;;;;8.35;5.03;;;20.40;58.90;;;;;;4914204;28;20711;-84
2021/04/12 11:55:39;;;;;;;4.82;4.22;;;20.40;58.50;;;;;;4921782;28;20206;-85
2021/04/12 11:58:15;;;;;;;5.32;4.18;;;20.20;58.00;;;;;;4920797;28;20201;-85
2021/04/12 12:01:11;;;;;;;4.78;4.07;;;20.30;58.40;;;;;;4930792;29;20202;-83
2021/04/12 12:03:56;;;;;;;4.30;3.90;;;20.40;59.70;;;;;;4930112;29;20198;-83
2021/04/12 12:06:35;;;;;;;4.78;3.75;;;20.90;58.70;;;;;;4915974;28;20706;-85
2021/04/12 12:09:16;;;;;;;5.13;4.10;;;21.10;57.80;;;;;;4933786;28;20261;-86
2021/04/12 12:11:57;;;;;;;6.45;4.10;;;21.30;58.20;;;;;;4938375;28;20191;-86
2021/04/12 12:14:36;;;;;;;6.07;4.03;;;21.50;57.70;;;;;;4927808;28;20202;-84
2021/04/12 12:17:15;;;;;;;5.90;4.05;;;21.30;56.60;;;;;;5163539;23;20228;-83
2021/04/12 12:19:48;;;;;;;5.68;4.35;;;21.00;57.10;;;;;;4920382;28;20361;-82
2021/04/12 12:22:30;;;;;;;7.13;4.30;;;20.70;56.70;;;;;;4920539;28;20231;-85
2021/04/12 12:25:04;;;;;;;4.80;4.13;;;20.30;57.50;;;;;;4922940;28;20311;-85
2021/04/12 12:27:40;;;;;;;6.35;4.43;;;20.00;57.30;;;;;;4907980;28;20226;-85
2021/04/12 12:30:18;;;;;;;6.50;4.28;;;19.80;57.50;;;;;;4912447;28;20210;-83
2021/04/12 12:33:09;;;;;;;6.40;4.30;;;19.50;58.50;;;;;;4914277;28;20425;-84
2021/04/12 12:35:44;;;;;;;6.27;4.27;;;19.30;59.40;;;;;;4908194;29;20210;-85
2021/04/12 12:38:27;;;;;;;5.97;4.40;;;19.10;58.70;;;;;;4910030;29;20206;-83
2021/04/12 12:40:59;;;;;;;5.07;4.37;;;19.00;59.00;;;;;;4903169;29;20207;-85
2021/04/12 12:43:33;;;;;;;7.73;4.37;;;18.80;59.00;;;;;;4899734;29;20686;-84
2021/04/12 12:48:55;;;;;;;6.17;4.30;;;18.60;59.80;;;;;;4904407;29;20207;-84
2021/04/12 12:51:30;;;;;;;8.60;4.20;;;18.50;60.00;;;;;;4911540;28;20198;-85
2021/04/12 12:54:04;;;;;;;6.90;4.30;;;18.40;59.70;;;;;;4909250;28;20500;-84
2021/04/12 12:56:36;;;;;;;5.00;3.87;;;18.20;60.30;;;;;;4910161;28;20276;-85
2021/04/12 12:59:09;;;;;;;4.43;3.93;;;18.10;60.40;;;;;;4910715;28;20194;-85
2021/04/12 13:01:40;;;;;;;3.90;3.50;;;18.00;60.70;;;;;;4911483;28;20210;-82
2021/04/12 13:04:19;;;;;;;4.50;3.90;;;18.00;60.80;;;;;;4905030;29;20277;-83
2021/04/12 13:06:54;;;;;;;5.40;4.00;;;17.90;60.80;;;;;;4912307;28;20488;-84
2021/04/12 13:09:31;;;;;;;4.87;3.90;;;17.80;60.70;;;;;;4920443;28;20282;-84
2021/04/12 13:12:19;;;;;;;4.57;4.13;;;17.80;60.60;;;;;;4911039;29;20211;-83
2021/04/12 13:14:50;;;;;;;6.77;4.10;;;17.90;60.60;;;;;;4897702;29;20644;-83
2021/04/12 13:17:28;;;;;;;5.53;3.97;;;17.80;60.70;;;;;;4892537;29;20210;-85
2021/04/12 13:20:00;;;;;;;6.20;4.47;;;17.90;60.50;;;;;;4893930;29;20719;-82
2021/04/12 13:22:42;;;;;;;6.43;4.00;;;17.90;61.20;;;;;;4890361;29;20221;-84
2021/04/12 13:25:17;;;;;;;5.40;3.90;;;17.80;60.90;;;;;;4892688;29;20280;-83
2021/04/12 13:27:48;;;;;;;5.63;4.70;;;17.80;60.70;;;;;;4891294;29;20265;-81
2021/04/12 13:30:24;;;;;;;5.87;3.90;;;17.80;60.80;;;;;;4898076;29;20206;-82
2021/04/12 13:33:03;;;;;;;9.27;4.33;;;17.70;60.80;;;;;;4884833;29;20206;-83
2021/04/12 13:35:48;;;;;;;7.67;4.37;;;17.80;61.10;;;;;;4894404;29;20290;-84
2021/04/12 13:38:20;;;;;;;6.83;4.27;;;17.70;61.20;;;;;;4893025;29;20201;-83
2021/04/12 13:40:59;;;;;;;8.57;4.03;;;17.70;61.50;;;;;;4899118;29;21441;-82
2021/04/12 13:43:31;;;;;;;6.77;4.27;;;17.70;61.00;;;;;;4888751;29;20206;-82
2021/04/12 13:46:20;;;;;;;7.47;4.83;;;17.70;61.30;;;;;;4890347;29;20703;-84
2021/04/12 13:49:04;;;;;;;8.33;4.80;;;17.70;61.20;;;;;;4894797;29;20446;-83
2021/04/12 13:51:41;;;;;;;4.43;3.97;;;17.60;61.20;;;;;;4897396;29;20302;-84
2021/04/12 13:54:18;;;;;;;9.17;5.00;;;17.60;61.70;;;;;;4901367;29;20635;-82
2021/04/12 13:56:51;;;;;;;4.90;4.37;;;17.60;61.80;;;;;;4898910;29;20206;-83
2021/04/12 13:59:38;;;;;;;7.90;4.70;;;17.40;61.80;;;;;;4918156;29;20203;-87
2021/04/12 14:02:29;;;;;;;9.07;4.80;;;17.60;62.00;;;;;;4898977;29;20323;-82
2021/04/12 14:05:00;;;;;;;5.47;4.63;;;17.50;62.00;;;;;;4899521;29;20530;-84
2021/04/12 14:07:42;;;;;;;7.20;5.00;;;17.50;61.90;;;;;;4901008;29;21013;-83
2021/04/12 14:10:20;;;;;;;6.30;4.90;;;17.40;62.30;;;;;;4901481;29;20675;-83
2021/04/12 14:12:55;;;;;;;8.53;5.13;;;17.40;62.50;;;;;;4899277;29;20268;-82
2021/04/12 14:15:51;;;;;;;8.37;5.40;;;17.40;62.40;;;;;;4905545;29;20206;-82
2021/04/12 14:18:34;;;;;;;6.53;4.80;;;17.30;62.40;;;;;;4904618;29;20679;-82
2021/04/12 14:21:07;;;;;;;6.03;4.70;;;17.30;62.30;;;;;;4912351;29;20388;-85
2021/04/12 14:23:40;;;;;;;7.57;4.70;;;17.20;62.40;;;;;;4915049;29;20214;-82
2021/04/12 14:26:11;;;;;;;9.53;4.90;;;17.20;62.60;;;;;;4918731;29;20221;-84
2021/04/12 14:28:48;;;;;;;7.60;5.27;;;17.10;62.70;;;;;;4926795;28;20213;-85
2021/04/12 14:31:23;;;;;;;11.27;5.20;;;17.10;62.80;;;;;;4922132;28;20574;-81
2021/04/12 14:34:04;;;;;;;7.97;4.73;;;17.00;62.70;;;;;;4922686;29;20202;-83
2021/04/12 14:36:39;;;;;;;6.33;4.10;;;17.10;62.60;;;;;;4920447;29;20221;-84
2021/04/12 14:39:20;;;;;;;6.43;4.40;;;17.10;62.80;;;;;;4923433;29;20212;-82
2021/04/12 14:41:52;;;;;;;5.30;4.57;;;17.00;62.50;;;;;;4907679;29;20211;-82
2021/04/12 14:44:28;;;;;;;10.53;4.67;;;17.00;62.80;;;;;;4910460;29;20210;-82
2021/04/12 14:46:58;;;;;;;8.30;4.93;;;16.90;62.70;;;;;;4908550;29;20234;-83